Map

Track Data

SID SEASON NUMBER BASIN SUBBASIN NAME ISO_TIME NATURE LAT LON WMO_WIND WMO_PRES WMO_AGENCY TRACK_TYPE DIST2LAND LANDFALL IFLAG USA_AGENCY USA_ATCF_ID USA_LAT USA_LON USA_RECORD USA_STATUS USA_WIND USA_PRES USA_SSHS USA_R34_NE USA_R34_SE USA_R34_SW USA_R34_NW USA_R50_NE USA_R50_SE USA_R50_SW USA_R50_NW USA_R64_NE USA_R64_SE USA_R64_SW USA_R64_NW USA_POCI USA_ROCI USA_RMW USA_EYE TOKYO_LAT TOKYO_LON TOKYO_GRADE TOKYO_WIND TOKYO_PRES TOKYO_R50_DIR TOKYO_R50_LONG TOKYO_R50_SHORT TOKYO_R30_DIR TOKYO_R30_LONG TOKYO_R30_SHORT TOKYO_LAND CMA_LAT CMA_LON CMA_CAT CMA_WIND CMA_PRES HKO_LAT HKO_LON HKO_CAT HKO_WIND HKO_PRES NEWDELHI_LAT NEWDELHI_LON NEWDELHI_GRADE NEWDELHI_WIND NEWDELHI_PRES NEWDELHI_CI NEWDELHI_DP NEWDELHI_POCI REUNION_LAT REUNION_LON REUNION_TYPE REUNION_WIND REUNION_PRES REUNION_TNUM REUNION_CI REUNION_RMW REUNION_R34_NE REUNION_R34_SE REUNION_R34_SW REUNION_R34_NW REUNION_R50_NE REUNION_R50_SE REUNION_R50_SW REUNION_R50_NW REUNION_R64_NE REUNION_R64_SE REUNION_R64_SW REUNION_R64_NW BOM_LAT BOM_LON BOM_TYPE BOM_WIND BOM_PRES BOM_TNUM BOM_CI BOM_RMW BOM_R34_NE BOM_R34_SE BOM_R34_SW BOM_R34_NW BOM_R50_NE BOM_R50_SE BOM_R50_SW BOM_R50_NW BOM_R64_NE BOM_R64_SE BOM_R64_SW BOM_R64_NW BOM_ROCI BOM_POCI BOM_EYE BOM_POS_METHOD BOM_PRES_METHOD NADI_LAT NADI_LON NADI_CAT NADI_WIND NADI_PRES WELLINGTON_LAT WELLINGTON_LON WELLINGTON_WIND WELLINGTON_PRES DS824_LAT DS824_LON DS824_STAGE DS824_WIND DS824_PRES TD9636_LAT TD9636_LON TD9636_STAGE TD9636_WIND TD9636_PRES TD9635_LAT TD9635_LON TD9635_WIND TD9635_PRES TD9635_ROCI NEUMANN_LAT NEUMANN_LON NEUMANN_CLASS NEUMANN_WIND NEUMANN_PRES MLC_LAT MLC_LON MLC_CLASS MLC_WIND MLC_PRES USA_GUST BOM_GUST BOM_GUST_PER REUNION_GUST REUNION_GUST_PER USA_SEAHGT USA_SEARAD_NE USA_SEARAD_SE USA_SEARAD_SW USA_SEARAD_NW STORM_SPEED STORM_DIR
1978320N15130 1978 123 WP MM NOT_NAMED 1978-11-15 18:00:00 TS 15.3000 130.100 main 606 597 O________OO___ jtwc_wp WP301978 15.3000 130.100 15 -1 15.3000 130.100 TC 15 15.3000 130.100 1 15 3 270
1978320N15130 1978 123 WP MM NOT_NAMED 1978-11-15 21:00:00 TS 15.3000 129.950 main 588 579 P________PP___ WP301978 15.3000 129.950 15 -1 15.3000 129.950 TC 15 15.3000 129.949 1 15 3 270
1978320N15130 1978 123 WP MM NOT_NAMED 1978-11-16 00:00:00 TS 15.3000 129.800 main 579 571 O________OO___ jtwc_wp WP301978 15.3000 129.800 15 -1 15.3000 129.800 TC 15 15.3000 129.800 1 15 3 270
1978320N15130 1978 123 WP MM NOT_NAMED 1978-11-16 03:00:00 TS 15.3000 129.651 main 571 554 P________PP___ WP301978 15.3000 129.650 15 -1 15.3000 129.650 TC 15 15.3000 129.653 1 16 3 270
1978320N15130 1978 123 WP MM NOT_NAMED 1978-11-16 06:00:00 TS 15.3000 129.502 main 554 545 O________OP___ jtwc_wp WP301978 15.3000 129.500 15 -1 15.3000 129.500 TC 15 15.2999 129.507 1 17 3 270
1978320N15130 1978 123 WP MM NOT_NAMED 1978-11-16 09:00:00 TS 15.3000 129.352 main 545 529 P________PP___ WP301978 15.3000 129.350 17 -1 15.3000 129.350 TC 17 15.3000 129.357 1 18 3 270
1978320N15130 1978 123 WP MM NOT_NAMED 1978-11-16 12:00:00 TS 15.3000 129.200 main 529 521 O________OO___ jtwc_wp WP301978 15.3000 129.200 20 -1 15.3000 129.200 TC 20 15.3000 129.200 1 20 3 270
1978320N15130 1978 123 WP MM NOT_NAMED 1978-11-16 15:00:00 TS 15.3013 129.046 main 513 505 P________PP___ WP301978 15.3000 129.057 22 -1 15.3000 129.057 TC 22 15.3041 129.024 1 21 3 270
1978320N15130 1978 123 WP MM NOT_NAMED 1978-11-16 18:00:00 TS 15.3025 128.881 main 505 488 O________OP___ jtwc_wp WP301978 15.3000 128.900 25 -1 15.3000 128.900 TC 25 15.3075 128.843 1 22 4 270
1978320N15130 1978 123 WP MM NOT_NAMED 1978-11-16 21:00:00 TS 15.3024 128.683 main 488 468 P________PP___ WP301978 15.3000 128.693 25 -1 15.3000 128.693 TC 25 15.3072 128.665 1 23 4 270
1978320N15130 1978 123 WP MM NOT_NAMED 1978-11-17 00:00:00 TS 15.3000 128.500 main 468 458 O________OO___ jtwc_wp WP301978 15.3000 128.500 25 -1 15.3000 128.500 TC 25 15.3000 128.500 1 25 3 270
1978320N15130 1978 123 WP MM NOT_NAMED 1978-11-17 03:00:00 TS 15.3004 128.385 main 458 448 P________PP___ WP301978 15.3075 128.393 25 -1 15.3075 128.393 TC 25 15.2861 128.369 1 25 2 267
1978320N15130 1978 123 WP MM NOT_NAMED 1978-11-17 06:00:00 TS 15.2883 128.283 main 448 438 O________OP___ jtwc_wp WP301978 15.3000 128.300 25 -1 15.3000 128.300 TC 25 15.2649 128.250 1 25 2 258
1978320N15130 1978 123 WP MM NOT_NAMED 1978-11-17 09:00:00 TS 15.2504 128.149 main 428 414 P________PP___ WP301978 15.2575 128.158 25 -1 15.2575 128.158 TC 25 15.2361 128.131 1 25 4 250
1978320N15130 1978 123 WP MM NOT_NAMED 1978-11-17 12:00:00 TS 15.1692 127.938 main 403 379 O_O______OO___ jtwc_wp WP301978 15.2000 128.000 25 -1 14.8000 127.200 1 23 1000 15.2000 128.000 TC 25 15.2000 128.000 1 25 4 256
1978320N15130 1978 123 WP MM NOT_NAMED 1978-11-17 15:00:00 TS 15.1488 127.730 main 379 359 P_P______PP___ WP301978 15.1500 127.858 25 -1 15.0700 126.970 1 23 1000 15.1500 127.858 TC 25 15.1734 127.844 1 25 4 267
1978320N15130 1978 123 WP MM NOT_NAMED 1978-11-17 18:00:00 TS 15.1500 127.493 main 364 334 O_O______OP___ jtwc_wp WP301978 15.1000 127.700 25 -1 15.3000 126.700 1 23 1000 15.1000 127.700 TC 25 15.1375 127.673 1 25 5 272
1978320N15130 1978 123 WP MM NOT_NAMED 1978-11-17 21:00:00 TS 15.1663 127.218 main 334 310 P_P______PP___ WP301978 15.0650 127.508 25 -1 15.4525 126.365 1 23 1000 15.0650 127.508 TC 25 15.0828 127.490 1 25 4 263
1978320N15130 1978 123 WP MM NOT_NAMED 1978-11-18 00:00:00 TS 15.1000 127.040 main 310 296 O_O______OO___ jtwc_wp WP301978 15.0000 127.300 25 -1 15.5000 126.000 1 23 1000 15.0000 127.300 TC 25 15.0000 127.300 1 25 4 235
1978320N15130 1978 123 WP MM NOT_NAMED 1978-11-18 03:00:00 TS 14.9474 126.894 main 291 277 P_P______PP___ WP301978 14.8650 127.100 25 -1 15.4326 125.645 1 23 1000 14.8650 127.100 TC 25 14.8747 127.107 1 25 4 216
1978320N15130 1978 123 WP MM NOT_NAMED 1978-11-18 06:00:00 TS 14.7531 126.779 main 277 260 O_O______OP___ jtwc_wp WP301978 14.7000 126.900 25 -1 15.3000 125.300 1 23 1000 14.7000 126.900 TC 25 14.7225 126.907 1 25 4 205
1978320N15130 1978 123 WP MM NOT_NAMED 1978-11-18 09:00:00 TS 14.5530 126.701 main 260 233 P________PP___ WP301978 14.5500 126.700 25 -1 1 14.5500 126.700 TC 25 14.5590 126.704 1 25 4 218
1978320N15130 1978 123 WP MM NOT_NAMED 1978-11-18 12:00:00 TS 14.4000 126.500 main 233 209 O________OO___ jtwc_wp WP301978 14.4000 126.500 25 -1 14.4000 126.500 TC 25 14.4000 126.500 1 25 5 232
1978320N15130 1978 123 WP MM NOT_NAMED 1978-11-18 15:00:00 TS 14.2495 126.304 main 207 184 P________PP___ WP301978 14.2425 126.300 25 -1 14.2425 126.300 TC 25 14.2636 126.312 1 25 5 233
1978320N15130 1978 123 WP MM NOT_NAMED 1978-11-18 18:00:00 TS 14.1116 126.108 main 184 162 O________OP___ jtwc_wp WP301978 14.1000 126.100 25 -1 14.1000 126.100 TC 25 14.1348 126.123 1 25 5 237
1978320N15130 1978 123 WP MM NOT_NAMED 1978-11-18 21:00:00 TS 13.9995 125.912 main 162 140 P________PP___ WP301978 13.9925 125.908 25 -1 13.9925 125.908 TC 25 14.0136 125.922 1 25 4 242
1978320N15130 1978 123 WP MM NOT_NAMED 1978-11-19 00:00:00 TS 13.9000 125.700 main 140 118 O________OO___ jtwc_wp WP301978 13.9000 125.700 25 -1 13.9000 125.700 TC 25 13.9000 125.700 1 25 5 245
1978320N15130 1978 123 WP MM NOT_NAMED 1978-11-19 03:00:00 TS 13.7935 125.462 main 118 86 P________PP___ WP301978 13.8000 125.465 25 -1 13.8000 125.465 TC 25 13.7806 125.455 1 23 5 247
1978320N15130 1978 123 WP MM NOT_NAMED 1978-11-19 06:00:00 TS 13.6900 125.196 main 86 55 O________OP___ jtwc_wp WP301978 13.7000 125.200 25 -1 13.7000 125.200 TC 25 13.6699 125.187 1 22 6 249
1978320N15130 1978 123 WP MM NOT_NAMED 1978-11-19 09:00:00 TS 13.5864 124.905 main 55 31 P________PP___ WP301978 13.5925 124.907 22 -1 13.5925 124.907 TC 22 13.5743 124.902 1 21 6 252
1978320N15130 1978 123 WP MM NOT_NAMED 1978-11-19 12:00:00 TS 13.5000 124.600 main 31 15 O________OO___ jtwc_wp WP301978 13.5000 124.600 20 -1 13.5000 124.600 TC 20 13.5000 124.600 1 20 6 256
1978320N15130 1978 123 WP MM NOT_NAMED 1978-11-19 15:00:00 TS 13.4403 124.300 main 15 11 P________PP___ WP301978 13.4349 124.308 20 -1 13.4349 124.308 TC 20 13.4511 124.286 1 18 6 261
1978320N15130 1978 123 WP MM NOT_NAMED 1978-11-19 18:00:00 TS 13.4076 123.988 main 24 0 O________OP___ jtwc_wp WP301978 13.4000 124.000 20 -1 13.4000 124.000 TC 20 13.4229 123.963 1 17 6 266
1978320N15130 1978 123 WP MM NOT_NAMED 1978-11-19 21:00:00 TS 13.3978 123.651 main 0 0 P________PP___ WP301978 13.3926 123.660 17 -1 13.3926 123.660 TC 17 13.4081 123.633 1 16 7 269
1978320N15130 1978 123 WP MM NOT_NAMED 1978-11-20 00:00:00 TS 13.4000 123.300 main 0 O________OO___ jtwc_wp WP301978 13.4000 123.300 15 -1 13.4000 123.300 TC 15 13.4000 123.300 1 15 7 270

Digital Typhoon Data and Search

About IBTrACS Database

This database is a web-friendly format of International Best Track Archive for Climate Stewardship (IBTrACS), a global best track data archive curated by NOAA dating back to 1842.

Updated: 2021-10-21